createdAt,value
2022-12-01T00:01:46.474Z,22.53
2022-12-01T00:04:15.404Z,24.63
2022-12-01T00:06:43.428Z,24.53
2022-12-01T00:09:29.893Z,26.83
2022-12-01T00:11:57.937Z,25.47
2022-12-01T00:14:26.591Z,27.97
2022-12-01T00:16:56.299Z,28.03
2022-12-01T00:19:26.760Z,25.80
2022-12-01T00:21:54.989Z,25.90
2022-12-01T00:24:25.250Z,27.40
2022-12-01T00:26:54.272Z,26.93
2022-12-01T00:29:22.279Z,26.80
2022-12-01T00:31:51.057Z,25.83
2022-12-01T00:34:28.529Z,29.00
2022-12-01T00:36:56.799Z,28.87
2022-12-01T00:39:25.713Z,28.23
2022-12-01T00:41:56.665Z,27.20
2022-12-01T00:44:25.459Z,26.37
2022-12-01T00:46:55.743Z,27.87
2022-12-01T00:49:25.460Z,27.17
2022-12-01T00:51:53.768Z,27.53
2022-12-01T00:54:22.063Z,26.67
2022-12-01T00:56:51.342Z,25.67
2022-12-01T00:59:19.382Z,27.60
2022-12-01T01:01:48.060Z,28.23
2022-12-01T01:04:19.757Z,26.83
2022-12-01T01:06:52.840Z,28.57
2022-12-01T01:09:24.573Z,27.50
2022-12-01T01:11:52.658Z,29.13
2022-12-01T01:14:21.264Z,29.40
2022-12-01T01:16:51.156Z,30.07
2022-12-01T01:19:19.497Z,27.27
2022-12-01T01:21:50.232Z,27.90
2022-12-01T01:24:28.445Z,25.53
2022-12-01T01:26:57.375Z,24.27
2022-12-01T01:29:26.256Z,23.40
2022-12-01T01:31:56.878Z,21.87
2022-12-01T01:34:25.409Z,22.00
2022-12-01T01:36:54.605Z,21.67
2022-12-01T01:39:23.977Z,19.73
2022-12-01T01:41:52.515Z,21.80
2022-12-01T01:44:50.305Z,19.30
2022-12-01T01:47:23.123Z,20.83
2022-12-01T01:49:51.743Z,18.20
2022-12-01T01:52:22.342Z,20.50
2022-12-01T01:54:57.281Z,21.53
2022-12-01T01:57:29.471Z,21.53
2022-12-01T02:00:03.817Z,21.87
2022-12-01T02:02:44.432Z,21.70
2022-12-01T02:05:18.035Z,22.80
2022-12-01T02:07:47.870Z,23.00
2022-12-01T02:10:22.845Z,21.47
2022-12-01T02:13:04.406Z,22.40
2022-12-01T02:15:46.895Z,22.50
2022-12-01T02:18:28.206Z,20.60
2022-12-01T02:21:27.267Z,19.60
2022-12-01T02:24:28.725Z,20.27
2022-12-01T02:27:03.360Z,20.23
2022-12-01T02:30:03.142Z,20.70
2022-12-01T02:32:55.436Z,19.33
2022-12-01T02:35:30.646Z,17.80
2022-12-01T02:38:15.846Z,19.90
2022-12-01T02:40:51.829Z,20.23
2022-12-01T02:43:28.051Z,19.67
2022-12-01T02:46:01.570Z,21.50
2022-12-01T02:48:33.554Z,18.57
2022-12-01T02:51:09.955Z,17.83
2022-12-01T02:53:38.017Z,18.80
2022-12-01T02:56:10.591Z,20.07
2022-12-01T02:58:38.649Z,19.83
2022-12-01T03:01:34.618Z,21.40
2022-12-01T03:04:21.198Z,19.23
2022-12-01T03:06:59.921Z,20.70
2022-12-01T03:09:37.723Z,20.83
2022-12-01T03:12:19.114Z,18.67
2022-12-01T03:14:55.942Z,22.83
2022-12-01T03:17:30.637Z,25.10
2022-12-01T03:20:08.536Z,28.90
2022-12-01T03:22:43.009Z,29.43
2022-12-01T03:25:14.249Z,27.60
2022-12-01T03:28:19.336Z,27.37
2022-12-01T03:30:40.951Z,25.20
2022-12-01T03:33:21.398Z,24.77
2022-12-01T03:35:55.740Z,23.73
2022-12-01T03:38:27.489Z,23.20
2022-12-01T03:40:59.783Z,22.97
2022-12-01T03:43:32.785Z,22.07
2022-12-01T03:46:08.976Z,22.13
2022-12-01T03:48:39.799Z,25.43
2022-12-01T03:51:15.300Z,24.17
2022-12-01T03:53:53.013Z,28.07
2022-12-01T03:56:25.572Z,25.90
2022-12-01T03:58:59.044Z,28.30
2022-12-01T04:01:32.640Z,28.37
2022-12-01T04:04:10.183Z,27.20
2022-12-01T04:06:41.274Z,26.40
2022-12-01T04:09:10.133Z,24.03
2022-12-01T04:11:55.414Z,23.80
2022-12-01T04:14:24.334Z,20.67
2022-12-01T04:16:52.387Z,21.73
2022-12-01T04:19:22.911Z,21.70
2022-12-01T04:21:53.099Z,22.30
2022-12-01T04:24:21.167Z,28.27
2022-12-01T04:26:49.144Z,26.97
2022-12-01T04:29:18.396Z,26.60
2022-12-01T04:31:47.345Z,30.00
2022-12-01T04:34:16.215Z,27.97
2022-12-01T04:36:46.501Z,26.07
2022-12-01T04:39:17.134Z,26.60
2022-12-01T04:41:45.746Z,22.97
2022-12-01T04:44:17.072Z,23.20
2022-12-01T04:46:46.209Z,20.47
2022-12-01T04:49:16.296Z,21.00
2022-12-01T04:51:44.329Z,22.57
2022-12-01T04:54:14.918Z,21.20
2022-12-01T04:56:44.801Z,18.37
2022-12-01T04:59:13.279Z,17.87
2022-12-01T05:01:41.661Z,17.90
2022-12-01T05:04:12.763Z,20.40
2022-12-01T05:06:41.395Z,20.63
2022-12-01T05:09:15.640Z,18.23
2022-12-01T05:11:47.381Z,20.00
2022-12-01T05:14:15.357Z,22.33
2022-12-01T05:16:44.002Z,21.20
2022-12-01T05:19:29.561Z,18.60
2022-12-01T05:21:58.317Z,20.37
2022-12-01T05:24:26.689Z,22.73
2022-12-01T05:26:56.228Z,22.50
2022-12-01T05:29:25.060Z,21.63
2022-12-01T05:31:53.106Z,21.87
2022-12-01T05:34:23.713Z,24.47
2022-12-01T05:36:52.524Z,25.37
2022-12-01T05:39:20.829Z,25.50
2022-12-01T05:41:49.912Z,23.63
2022-12-01T05:44:26.899Z,23.77
2022-12-01T05:46:55.924Z,23.13
2022-12-01T05:49:23.941Z,20.87
2022-12-01T05:51:52.346Z,23.57
2022-12-01T05:54:20.722Z,22.50
2022-12-01T05:56:51.418Z,23.27
2022-12-01T05:59:36.698Z,19.10
2022-12-01T06:02:18.946Z,19.37
2022-12-01T06:04:48.099Z,21.93
2022-12-01T06:07:16.362Z,21.77
2022-12-01T06:09:46.448Z,22.43
2022-12-01T06:12:15.454Z,21.53
2022-12-01T06:14:47.833Z,23.80
2022-12-01T06:17:17.319Z,23.70
2022-12-01T06:19:48.157Z,24.27
2022-12-01T06:22:16.458Z,26.90
2022-12-01T06:24:44.437Z,27.17
2022-12-01T06:27:12.917Z,26.57
2022-12-01T06:29:44.160Z,25.03
2022-12-01T06:32:12.531Z,28.27
2022-12-01T06:34:41.440Z,27.90
2022-12-01T06:37:17.389Z,27.20
2022-12-01T06:39:45.820Z,25.37
2022-12-01T06:42:14.453Z,22.90
2022-12-01T06:44:44.030Z,24.80
2022-12-01T06:47:12.440Z,21.33
2022-12-01T06:49:40.493Z,24.43
2022-12-01T06:52:08.991Z,24.67
2022-12-01T06:54:37.673Z,25.67
2022-12-01T06:57:06.810Z,24.17
2022-12-01T06:59:35.090Z,22.87
2022-12-01T07:02:07.364Z,25.80
2022-12-01T07:04:36.166Z,23.10
2022-12-01T07:07:05.490Z,24.13
2022-12-01T07:09:34.661Z,24.93
2022-12-01T07:12:02.706Z,20.60
2022-12-01T07:14:31.784Z,23.17
2022-12-01T07:17:00.724Z,21.40
2022-12-01T07:19:32.834Z,22.33
2022-12-01T07:22:04.027Z,23.43
2022-12-01T07:24:32.370Z,25.07
2022-12-01T07:27:02.099Z,24.47
2022-12-01T07:29:32.456Z,25.93
2022-12-01T07:32:00.581Z,24.37
2022-12-01T07:34:29.930Z,25.20
2022-12-01T07:36:58.675Z,22.30
2022-12-01T07:39:27.390Z,22.50
2022-12-01T07:41:55.383Z,21.57
2022-12-01T07:44:23.371Z,18.77
2022-12-01T07:46:54.376Z,18.33
2022-12-01T07:49:22.550Z,18.13
2022-12-01T07:51:56.727Z,18.40
2022-12-01T07:54:25.649Z,18.17
2022-12-01T07:56:56.593Z,19.00
2022-12-01T07:59:32.814Z,17.50
2022-12-01T08:02:01.772Z,18.00
2022-12-01T08:04:29.811Z,17.97
2022-12-01T08:06:59.736Z,17.63
2022-12-01T08:09:28.232Z,16.53
2022-12-01T08:11:58.572Z,16.10
2022-12-01T08:14:28.952Z,13.50
2022-12-01T08:16:59.746Z,15.80
2022-12-01T08:19:29.201Z,14.87
2022-12-01T08:22:02.203Z,16.10
2022-12-01T08:24:30.410Z,15.70
2022-12-01T08:27:01.853Z,15.40
2022-12-01T08:29:30.451Z,15.50
2022-12-01T08:31:59.748Z,16.60
2022-12-01T08:34:28.402Z,19.40
2022-12-01T08:37:03.612Z,18.23
2022-12-01T08:39:33.773Z,19.50
2022-12-01T08:42:01.805Z,18.60
2022-12-01T08:44:30.001Z,20.27
2022-12-01T08:46:58.801Z,19.83
2022-12-01T08:49:27.034Z,19.33
2022-12-01T08:51:56.331Z,17.47
2022-12-01T08:54:24.496Z,16.80
2022-12-01T08:56:56.986Z,16.70
2022-12-01T08:59:25.247Z,14.57
2022-12-01T09:01:53.307Z,14.13
2022-12-01T09:04:23.892Z,14.27
2022-12-01T09:06:53.645Z,16.03
2022-12-01T09:09:27.020Z,15.70
2022-12-01T09:11:57.484Z,14.33
2022-12-01T09:14:26.533Z,13.13
2022-12-01T09:16:54.620Z,15.10
2022-12-01T09:19:30.771Z,15.07
2022-12-01T09:22:03.324Z,14.43
2022-12-01T09:24:31.370Z,14.87
2022-12-01T09:27:00.981Z,14.93
2022-12-01T09:29:31.654Z,15.17
2022-12-01T09:32:03.819Z,16.20
2022-12-01T09:34:32.064Z,16.20
2022-12-01T09:37:00.288Z,15.50
2022-12-01T09:39:29.697Z,18.20
2022-12-01T09:42:16.367Z,16.90
2022-12-01T09:44:59.120Z,17.20
2022-12-01T09:47:33.920Z,18.20
2022-12-01T09:50:05.613Z,18.10
2022-12-01T09:52:41.466Z,18.13
2022-12-01T09:55:13.464Z,21.07
2022-12-01T09:57:42.426Z,21.73
2022-12-01T10:00:16.365Z,20.07
2022-12-01T10:02:52.013Z,23.30
2022-12-01T10:05:23.018Z,20.97
2022-12-01T10:07:56.897Z,23.50
2022-12-01T10:10:29.722Z,23.43
2022-12-01T10:12:59.075Z,21.40
2022-12-01T10:15:44.655Z,24.17
2022-12-01T10:18:32.690Z,24.57
2022-12-01T10:21:11.758Z,23.70
2022-12-01T10:24:03.287Z,27.47
2022-12-01T10:26:35.933Z,26.20
2022-12-01T10:29:15.304Z,27.30
2022-12-01T10:31:54.263Z,25.10
2022-12-01T10:34:27.026Z,26.00
2022-12-01T10:36:55.520Z,27.30
2022-12-01T10:39:30.380Z,29.73
2022-12-01T10:42:05.358Z,28.40
2022-12-01T10:44:35.336Z,31.70
2022-12-01T10:47:16.969Z,32.33
2022-12-01T10:49:48.819Z,31.57
2022-12-01T10:52:33.392Z,32.27
2022-12-01T10:55:02.706Z,30.70
2022-12-01T10:57:31.789Z,33.53
2022-12-01T11:00:05.963Z,31.10
2022-12-01T11:02:37.930Z,33.33
2022-12-01T11:05:20.154Z,31.70
2022-12-01T11:07:49.055Z,31.27
2022-12-01T11:10:20.541Z,33.07
2022-12-01T11:12:56.175Z,35.03
2022-12-01T11:15:26.977Z,31.03
2022-12-01T11:18:22.965Z,34.10
2022-12-01T11:21:07.984Z,36.80
2022-12-01T11:23:38.615Z,33.83
2022-12-01T11:26:15.559Z,33.80
2022-12-01T11:28:55.342Z,33.00
2022-12-01T11:31:28.344Z,33.80
2022-12-01T11:34:02.764Z,33.53
2022-12-01T11:36:38.777Z,30.63
2022-12-01T11:39:09.269Z,31.23
2022-12-01T11:41:43.122Z,32.60
2022-12-01T11:47:23.205Z,31.87
2022-12-01T11:49:59.666Z,33.60
2022-12-01T11:52:33.435Z,34.43
2022-12-01T11:55:13.178Z,33.20
2022-12-01T11:57:43.849Z,34.27
2022-12-01T12:00:16.386Z,34.57
2022-12-01T12:02:59.564Z,29.07
2022-12-01T12:06:18.237Z,31.63
2022-12-01T12:09:25.397Z,31.40
2022-12-01T12:12:08.518Z,31.70
2022-12-01T12:14:48.869Z,32.70
2022-12-01T12:17:43.732Z,32.87
2022-12-01T12:20:38.652Z,33.00
2022-12-01T12:23:31.082Z,27.73
2022-12-01T12:26:13.015Z,31.33
2022-12-01T12:29:07.065Z,32.70
2022-12-01T12:31:50.184Z,34.10
2022-12-01T12:34:44.594Z,32.53
2022-12-01T12:37:24.119Z,33.80
2022-12-01T12:40:15.781Z,32.93
2022-12-01T12:42:52.447Z,33.30
2022-12-01T12:45:30.153Z,34.73
2022-12-01T12:48:13.824Z,36.77
2022-12-01T12:50:48.102Z,31.50
2022-12-01T12:53:20.980Z,33.43
2022-12-01T12:55:51.953Z,35.03
2022-12-01T12:58:26.642Z,34.93
2022-12-01T13:01:00.973Z,32.77
2022-12-01T13:03:39.622Z,32.20
2022-12-01T13:06:11.037Z,31.93
2022-12-01T13:08:47.643Z,32.57
2022-12-01T13:11:20.190Z,31.63
2022-12-01T13:14:00.019Z,31.37
2022-12-01T13:16:33.976Z,32.27
2022-12-01T13:19:08.301Z,31.30
2022-12-01T13:21:40.247Z,32.33
2022-12-01T13:24:12.455Z,32.30
2022-12-01T13:26:42.792Z,34.57
2022-12-01T13:29:17.225Z,33.50
2022-12-01T13:31:50.947Z,32.37
2022-12-01T13:34:23.867Z,32.87
2022-12-01T13:36:54.025Z,31.70
2022-12-01T13:39:25.204Z,31.63
2022-12-01T13:42:05.390Z,30.47
2022-12-01T13:44:40.361Z,28.93
2022-12-01T13:47:40.496Z,31.30
2022-12-01T13:50:55.099Z,29.43
2022-12-01T13:53:32.800Z,29.07
2022-12-01T13:56:20.653Z,28.90
2022-12-01T13:58:52.608Z,30.80
2022-12-01T14:01:47.694Z,31.13
2022-12-01T14:04:35.891Z,29.67
2022-12-01T14:07:24.776Z,29.20
2022-12-01T14:09:55.579Z,29.50
2022-12-01T14:12:28.690Z,33.90
2022-12-01T14:15:01.355Z,28.07
2022-12-01T14:17:33.948Z,30.17
2022-12-01T14:20:18.603Z,30.93
2022-12-01T14:23:15.580Z,30.60
2022-12-01T14:26:04.375Z,29.77
2022-12-01T14:29:18.753Z,28.57
2022-12-01T14:32:21.251Z,30.83
2022-12-01T14:35:13.878Z,30.30
2022-12-01T14:37:49.357Z,31.80
2022-12-01T14:40:23.620Z,29.73
2022-12-01T14:43:16.992Z,30.67
2022-12-01T14:46:02.762Z,27.93
2022-12-01T14:48:38.445Z,31.77
2022-12-01T14:51:23.726Z,27.47
2022-12-01T14:53:55.071Z,29.90
2022-12-01T14:56:25.720Z,32.50
2022-12-01T14:58:56.502Z,30.70
2022-12-01T15:01:27.515Z,30.30
2022-12-01T15:04:01.898Z,32.33
2022-12-01T15:06:33.498Z,28.93
2022-12-01T15:12:14.869Z,27.97
2022-12-01T15:14:51.310Z,29.30
2022-12-01T15:17:31.342Z,28.87
2022-12-01T15:20:02.357Z,27.13
2022-12-01T15:22:34.458Z,30.47
2022-12-01T15:25:08.391Z,31.90
2022-12-01T15:27:36.982Z,30.37
2022-12-01T15:30:06.524Z,28.80
2022-12-01T15:32:39.343Z,29.30
2022-12-01T15:35:12.796Z,30.67
2022-12-01T15:37:46.381Z,28.70
2022-12-01T15:41:06.160Z,31.53
2022-12-01T15:43:11.142Z,31.47
2022-12-01T15:45:52.265Z,30.50
2022-12-01T15:48:28.108Z,31.40
2022-12-01T15:51:07.777Z,32.07
2022-12-01T15:53:48.987Z,30.23
2022-12-01T15:56:20.094Z,34.60
2022-12-01T15:58:48.947Z,32.00
2022-12-01T16:01:20.383Z,32.90
2022-12-01T16:03:54.862Z,31.20
2022-12-01T16:06:28.136Z,33.17
2022-12-01T16:09:01.461Z,34.53
2022-12-01T16:11:30.487Z,32.30
2022-12-01T16:14:08.084Z,32.73
2022-12-01T16:16:47.637Z,31.80
2022-12-01T16:19:30.677Z,33.23
2022-12-01T16:22:04.740Z,32.70
2022-12-01T16:24:39.280Z,31.70
2022-12-01T16:27:17.718Z,31.57
2022-12-01T16:29:50.474Z,31.33
2022-12-01T16:32:23.002Z,29.90
2022-12-01T16:34:53.383Z,34.10
2022-12-01T16:37:22.473Z,29.40
2022-12-01T16:39:54.833Z,31.13
2022-12-01T16:42:23.113Z,28.63
2022-12-01T16:44:52.496Z,28.83
2022-12-01T16:47:22.832Z,27.30
2022-12-01T16:49:51.394Z,24.60
2022-12-01T16:55:26.402Z,23.60
2022-12-01T16:57:58.199Z,26.30
2022-12-01T17:00:27.520Z,25.23
2022-12-01T17:02:58.624Z,22.30
2022-12-01T17:05:27.146Z,24.10
2022-12-01T17:07:58.569Z,24.13
2022-12-01T17:10:31.740Z,25.47
2022-12-01T17:13:00.624Z,25.80
2022-12-01T17:15:28.852Z,26.70
2022-12-01T17:18:00.029Z,25.50
2022-12-01T17:20:28.718Z,23.90
2022-12-01T17:22:57.711Z,23.30
2022-12-01T17:25:26.321Z,27.07
2022-12-01T17:27:58.644Z,24.73
2022-12-01T17:30:27.255Z,26.80
2022-12-01T17:32:55.242Z,24.97
2022-12-01T17:35:23.417Z,26.50
2022-12-01T17:37:51.853Z,24.23
2022-12-01T17:40:20.174Z,25.50
2022-12-01T17:42:51.249Z,24.03
2022-12-01T17:45:20.896Z,25.70
2022-12-01T17:47:49.681Z,24.73
2022-12-01T17:50:18.725Z,26.13
2022-12-01T17:52:47.026Z,27.60
2022-12-01T17:55:15.157Z,26.13
2022-12-01T17:57:45.141Z,25.50
2022-12-01T18:00:14.864Z,25.53
2022-12-01T18:02:47.561Z,22.10
2022-12-01T18:05:15.804Z,22.47
2022-12-01T18:07:44.831Z,21.93
2022-12-01T18:10:13.487Z,22.93
2022-12-01T18:12:41.531Z,22.80
2022-12-01T18:15:12.045Z,22.63
2022-12-01T18:17:40.527Z,21.80
2022-12-01T18:20:11.078Z,21.87
2022-12-01T18:22:42.440Z,21.70
2022-12-01T18:25:11.024Z,19.80
2022-12-01T18:27:38.997Z,19.30
2022-12-01T18:30:08.905Z,20.27
2022-12-01T18:32:36.995Z,18.50
2022-12-01T18:35:06.140Z,17.77
2022-12-01T18:37:37.145Z,17.67
2022-12-01T18:40:06.384Z,16.03
2022-12-01T18:42:34.366Z,15.03
2022-12-01T18:45:03.428Z,16.90
2022-12-01T18:47:31.718Z,16.37
2022-12-01T18:50:00.127Z,17.00
2022-12-01T18:52:29.129Z,18.30
2022-12-01T18:55:00.801Z,17.17
2022-12-01T18:57:29.751Z,19.90
2022-12-01T18:59:57.761Z,16.70
2022-12-01T19:02:33.968Z,18.97
2022-12-01T19:05:03.034Z,16.30
2022-12-01T19:07:31.064Z,20.33
2022-12-01T19:10:03.960Z,20.77
2022-12-01T19:12:40.689Z,19.53
2022-12-01T19:15:11.356Z,19.53
2022-12-01T19:17:39.771Z,22.27
2022-12-01T19:20:09.082Z,19.50
2022-12-01T19:22:38.002Z,20.70
2022-12-01T19:25:11.718Z,18.87
2022-12-01T19:27:42.632Z,17.83
2022-12-01T19:30:12.255Z,18.53
2022-12-01T19:32:43.398Z,17.90
2022-12-01T19:35:11.869Z,18.10
2022-12-01T19:37:40.263Z,17.27
2022-12-01T19:40:11.152Z,15.93
2022-12-01T19:42:42.892Z,16.93
2022-12-01T19:45:11.893Z,19.00
2022-12-01T19:47:41.322Z,20.10
2022-12-01T19:50:10.648Z,17.60
2022-12-01T19:52:41.812Z,18.30
2022-12-01T19:55:12.830Z,17.97
2022-12-01T19:57:41.816Z,19.70
2022-12-01T20:00:12.317Z,18.40
2022-12-01T20:02:41.676Z,19.20
2022-12-01T20:05:10.052Z,18.73
2022-12-01T20:07:38.820Z,18.83
2022-12-01T20:10:10.631Z,19.93
2022-12-01T20:12:40.126Z,21.83
2022-12-01T20:15:10.290Z,19.13
2022-12-01T20:17:38.802Z,28.13
2022-12-01T20:20:08.023Z,22.70
2022-12-01T20:22:39.084Z,21.63
2022-12-01T20:25:09.401Z,21.60
2022-12-01T20:27:40.163Z,21.87
2022-12-01T20:30:09.774Z,21.27
2022-12-01T20:32:46.280Z,22.57
2022-12-01T20:35:15.590Z,23.97
2022-12-01T20:37:43.557Z,20.53
2022-12-01T20:40:14.324Z,23.80
2022-12-01T20:42:44.627Z,21.70
2022-12-01T20:45:15.400Z,22.23
2022-12-01T20:47:43.993Z,22.93
2022-12-01T20:50:12.161Z,21.17
2022-12-01T20:52:41.924Z,21.40
2022-12-01T20:55:11.494Z,20.63
2022-12-01T20:57:40.050Z,18.77
2022-12-01T21:00:12.979Z,22.90
2022-12-01T21:02:41.571Z,22.13
2022-12-01T21:05:09.804Z,18.87
2022-12-01T21:07:38.790Z,22.60
2022-12-01T21:10:07.965Z,22.00
2022-12-01T21:12:55.812Z,21.03
2022-12-01T21:15:29.158Z,20.93
2022-12-01T21:18:00.253Z,20.97
2022-12-01T21:20:30.670Z,22.43
2022-12-01T21:23:05.591Z,20.50
2022-12-01T21:25:34.790Z,22.17
2022-12-01T21:28:08.913Z,22.67
2022-12-01T21:30:38.488Z,22.20
2022-12-01T21:33:18.576Z,24.20
2022-12-01T21:35:50.705Z,22.57
2022-12-01T21:38:22.145Z,23.90
2022-12-01T21:40:50.871Z,23.47
2022-12-01T21:43:21.943Z,24.17
2022-12-01T21:45:54.552Z,22.70
2022-12-01T21:48:24.115Z,24.70
2022-12-01T21:50:59.017Z,23.83
2022-12-01T21:53:37.651Z,25.63
2022-12-01T21:56:05.942Z,24.00
2022-12-01T21:58:37.683Z,24.03
2022-12-01T22:01:20.414Z,22.50
2022-12-01T22:03:49.064Z,23.50
2022-12-01T22:06:31.056Z,23.63
2022-12-01T22:09:02.092Z,24.63
2022-12-01T22:11:31.980Z,22.77
2022-12-01T22:14:14.104Z,21.80
2022-12-01T22:16:44.898Z,25.17
2022-12-01T22:19:29.052Z,22.83
2022-12-01T22:24:47.173Z,21.77
2022-12-01T22:27:40.447Z,21.83
2022-12-01T22:30:18.468Z,22.40
2022-12-01T22:32:58.636Z,22.70
2022-12-01T22:35:35.651Z,25.13
2022-12-01T22:38:21.698Z,20.47
2022-12-01T22:40:56.622Z,23.80
2022-12-01T22:43:29.032Z,21.73
2022-12-01T22:46:08.088Z,23.30
2022-12-01T22:48:44.502Z,22.20
2022-12-01T22:51:39.410Z,24.90
2022-12-01T22:54:35.234Z,22.63
2022-12-01T22:57:09.313Z,21.50
2022-12-01T22:59:40.761Z,19.87
2022-12-01T23:02:20.705Z,19.47
2022-12-01T23:04:55.438Z,20.07
2022-12-01T23:07:33.216Z,19.60
2022-12-01T23:10:13.770Z,21.27
2022-12-01T23:12:42.487Z,21.37
2022-12-01T23:15:35.617Z,19.70
2022-12-01T23:18:19.725Z,20.17
2022-12-01T23:20:51.518Z,20.77
2022-12-01T23:23:21.920Z,20.73
2022-12-01T23:25:53.726Z,22.17
2022-12-01T23:28:22.250Z,20.80
2022-12-01T23:30:53.939Z,20.60
2022-12-01T23:33:33.747Z,19.87
2022-12-01T23:36:07.355Z,19.60
2022-12-01T23:38:38.767Z,18.87
2022-12-01T23:41:11.167Z,19.53
2022-12-01T23:43:41.833Z,18.73
2022-12-01T23:46:13.163Z,18.47
2022-12-01T23:48:45.276Z,17.43
2022-12-01T23:51:22.702Z,18.43
2022-12-01T23:53:52.359Z,18.13
2022-12-01T23:56:24.239Z,17.27
2022-12-01T23:58:53.347Z,17.67
